Nearby METAR Reports

 

EGGP - Liverpool Airpor, United Kingdom
Distance from station: ESE 7mi, 11km
Updated: 22/10/2021 07:20
Light rain, Mostly cloudy
Light rain, Mostly cloudy
 Wind from W
Wind: W 22 mph , 35 km/h
Temperature: 11°C
Dew Point: 7°C
Humidity: 77%
Barometer: 1015 hPa
Summary: Light rain
Clouds: Mostly cloudy
Visibility: 6 miles , 10 km
Cloud details: Partly cloudy 457 m
Mostly cloudy 579 m
2021/10/22 06:20 EGGP 220620Z 27019KT 9999 -RA SCT015 BKN019 11/07 Q1015
EGNR - Hawarden (aut), United Kingdom
Distance from station: S 13mi, 20km
Updated: 21/10/2021 19:20
NOT Current
Nearby showers, Mostly cloudy
Nearby showers, Mostly cloudy
 Wind from WSW
Wind: WSW 10 mph , 17 km/h
Temperature: 8°C
Wind Chill: 5°C
Dew Point: 6°C
Humidity: 87%
Barometer: 1017 hPa
Summary: Nearby Showers
Clouds: Mostly cloudy
Visibility: 6 miles , 10 km
Cloud details: Partly cloudy 975 m
Mostly cloudy 1402 m
2021/10/21 18:20 EGNR 211820Z 25009KT 9999 VCSH SCT032CB BKN046 08/06 Q1017
EGOW - Woodvale Raf, United Kingdom
Distance from station: N 16mi, 26km
Updated: 21/10/2021 15:50
NOT Current
Few Clouds
Few Clouds
 Wind from NW
Wind: NW 14 mph , 22 km/h, Gust: 25 mph , 41 km/h
Temperature: 12°C
Dew Point: 2°C
Humidity: 51%
Barometer: 1014 hPa
Clouds: Few Clouds
Visibility: 6 miles , 10 km
Cloud details: Few Clouds 1067 m
2021/10/21 14:50 EGOW 211450Z 31012G22KT 9999 FEW035 12/02 Q1014 RMK BLU
 
EGNO - Wharton, United Kingdom
Distance from station: N 28mi, 45km
Updated: 22/10/2021 07:20
Mostly cloudy
Mostly cloudy
 Wind from WNW
Wind: WNW 20 mph , 31 km/h
Temperature: 11°C
Dew Point: 6°C
Humidity: 72%
Barometer: 1014 hPa
Clouds: Mostly cloudy
Visibility: 6 miles , 10 km
Cloud details: Partly cloudy 671 m
Mostly cloudy 823 m
2021/10/22 06:20 EGNO 220620Z 30017KT 270V330 9999 SCT022 BKN027 11/06 Q1014
EGNH - Blackpool Airpor, United Kingdom
Distance from station: N 29mi, 47km
Updated: 22/10/2021 07:20
Partly cloudy
Partly cloudy
 Wind from NW
Wind: NW 28 mph , 44 km/h, Gust: 39 mph , 63 km/h
Temperature: 12°C
Dew Point: 7°C
Humidity: 72%
Barometer: 1014 hPa
Clouds: Partly cloudy
Visibility: 6 miles , 9 km
Cloud details: Partly cloudy 610 m
2021/10/22 06:20 EGNH 220620Z 31024G34KT 9000 SCT020 12/07 Q1014
EGCC - Manchester Intl, United Kingdom
Distance from station: E 31mi, 49km
Updated: 22/10/2021 07:20
Light rain, Mostly cloudy
Light rain, Mostly cloudy
 Wind from W
Wind: W 10 mph , 17 km/h
Temperature: 9°C
Wind Chill: 7°C
Dew Point: 8°C
Humidity: 94%
Barometer: 1015 hPa
Summary: Light rain
Clouds: Mostly cloudy
Visibility: 5 miles , 8 km
Cloud details: Partly cloudy 457 m
Mostly cloudy 914 m
2021/10/22 06:20 EGCC 220620Z 26009KT 8000 -RA SCT015 BKN030 09/08 Q1015
 
EGOS - Shawbury Raf, United Kingdom
Distance from station: SSE 40mi, 65km
Updated: 22/10/2021 06:50
Mostly cloudy
Mostly cloudy
 Wind from W
Wind: W 13 mph , 20 km/h
Temperature: 9°C
Wind Chill: 6°C
Dew Point: 6°C
Humidity: 82%
Barometer: 1017 hPa
Clouds: Mostly cloudy
Visibility: 6 miles , 10 km
Cloud details: Few Clouds 1036 m
Mostly cloudy 1189 m
2021/10/22 05:50 EGOS 220550Z AUTO 27011KT 9999 FEW034/// BKN039/// 09/06 Q1017